sensor_id;sensor_type;location;lat;lon;timestamp;pressure;altitude;pressure_sealevel;temperature
22828;BMP180;11580;52.562;13.418;2023-04-24T00:02:02;99449.00;;;15.80
22828;BMP180;11580;52.562;13.418;2023-04-24T00:04:29;99434.00;;;15.80
22828;BMP180;11580;52.562;13.418;2023-04-24T00:06:57;99435.00;;;15.80
22828;BMP180;11580;52.562;13.418;2023-04-24T00:09:26;99439.00;;;15.70
22828;BMP180;11580;52.562;13.418;2023-04-24T00:11:53;99426.00;;;15.70
22828;BMP180;11580;52.562;13.418;2023-04-24T00:14:22;99428.00;;;15.70
22828;BMP180;11580;52.562;13.418;2023-04-24T00:16:49;99419.00;;;15.70
22828;BMP180;11580;52.562;13.418;2023-04-24T00:19:16;99407.00;;;15.70
22828;BMP180;11580;52.562;13.418;2023-04-24T00:21:47;99411.00;;;15.70
22828;BMP180;11580;52.562;13.418;2023-04-24T00:24:15;99415.00;;;15.70
22828;BMP180;11580;52.562;13.418;2023-04-24T00:26:43;99414.00;;;15.70
22828;BMP180;11580;52.562;13.418;2023-04-24T00:29:10;99407.00;;;15.60
22828;BMP180;11580;52.562;13.418;2023-04-24T00:31:38;99406.00;;;15.70
22828;BMP180;11580;52.562;13.418;2023-04-24T00:34:06;99400.00;;;15.60
22828;BMP180;11580;52.562;13.418;2023-04-24T00:36:33;99403.00;;;15.60
22828;BMP180;11580;52.562;13.418;2023-04-24T00:39:00;99387.00;;;15.60
22828;BMP180;11580;52.562;13.418;2023-04-24T00:41:28;99387.00;;;15.60
22828;BMP180;11580;52.562;13.418;2023-04-24T00:43:55;99385.00;;;15.60
22828;BMP180;11580;52.562;13.418;2023-04-24T00:46:22;99380.00;;;15.60
22828;BMP180;11580;52.562;13.418;2023-04-24T00:48:51;99379.00;;;15.60
22828;BMP180;11580;52.562;13.418;2023-04-24T00:51:18;99370.00;;;15.60
22828;BMP180;11580;52.562;13.418;2023-04-24T00:53:46;99367.00;;;15.60
22828;BMP180;11580;52.562;13.418;2023-04-24T00:56:14;99365.00;;;15.50
22828;BMP180;11580;52.562;13.418;2023-04-24T00:58:42;99363.00;;;15.50
22828;BMP180;11580;52.562;13.418;2023-04-24T01:01:10;99356.00;;;15.50
22828;BMP180;11580;52.562;13.418;2023-04-24T01:03:38;99358.00;;;15.50
22828;BMP180;11580;52.562;13.418;2023-04-24T01:06:07;99355.00;;;15.50
22828;BMP180;11580;52.562;13.418;2023-04-24T01:08:36;99352.00;;;15.50
22828;BMP180;11580;52.562;13.418;2023-04-24T01:11:04;99345.00;;;15.50
22828;BMP180;11580;52.562;13.418;2023-04-24T01:13:38;99354.00;;;15.50
22828;BMP180;11580;52.562;13.418;2023-04-24T01:16:05;99362.00;;;15.50
22828;BMP180;11580;52.562;13.418;2023-04-24T01:18:34;99361.00;;;15.50
22828;BMP180;11580;52.562;13.418;2023-04-24T01:21:05;99359.00;;;15.60
22828;BMP180;11580;52.562;13.418;2023-04-24T01:23:35;99363.00;;;15.60
22828;BMP180;11580;52.562;13.418;2023-04-24T01:26:02;99358.00;;;15.60
22828;BMP180;11580;52.562;13.418;2023-04-24T01:28:30;99359.00;;;15.60
22828;BMP180;11580;52.562;13.418;2023-04-24T01:30:57;99370.00;;;15.70
22828;BMP180;11580;52.562;13.418;2023-04-24T01:33:25;99356.00;;;15.70
22828;BMP180;11580;52.562;13.418;2023-04-24T01:35:53;99356.00;;;15.70
22828;BMP180;11580;52.562;13.418;2023-04-24T01:38:21;99358.00;;;15.80
22828;BMP180;11580;52.562;13.418;2023-04-24T01:40:50;99353.00;;;15.80
22828;BMP180;11580;52.562;13.418;2023-04-24T01:43:18;99330.00;;;15.90
22828;BMP180;11580;52.562;13.418;2023-04-24T01:45:45;99341.00;;;15.90
22828;BMP180;11580;52.562;13.418;2023-04-24T01:48:13;99343.00;;;16.00
22828;BMP180;11580;52.562;13.418;2023-04-24T01:50:40;99326.00;;;16.00
22828;BMP180;11580;52.562;13.418;2023-04-24T01:53:11;99344.00;;;16.10
22828;BMP180;11580;52.562;13.418;2023-04-24T01:55:39;99336.00;;;16.10
22828;BMP180;11580;52.562;13.418;2023-04-24T01:58:07;99327.00;;;16.20
22828;BMP180;11580;52.562;13.418;2023-04-24T02:00:35;99329.00;;;16.20
22828;BMP180;11580;52.562;13.418;2023-04-24T02:03:02;99325.00;;;16.30
22828;BMP180;11580;52.562;13.418;2023-04-24T02:05:29;99323.00;;;16.30
22828;BMP180;11580;52.562;13.418;2023-04-24T02:07:57;99321.00;;;16.30
22828;BMP180;11580;52.562;13.418;2023-04-24T02:10:24;99331.00;;;16.40
22828;BMP180;11580;52.562;13.418;2023-04-24T02:12:52;99332.00;;;16.40
22828;BMP180;11580;52.562;13.418;2023-04-24T02:15:25;99331.00;;;16.40
22828;BMP180;11580;52.562;13.418;2023-04-24T02:17:52;99329.00;;;16.30
22828;BMP180;11580;52.562;13.418;2023-04-24T02:20:19;99320.00;;;16.40
22828;BMP180;11580;52.562;13.418;2023-04-24T02:22:46;99321.00;;;16.30
22828;BMP180;11580;52.562;13.418;2023-04-24T02:25:13;99319.00;;;16.30
22828;BMP180;11580;52.562;13.418;2023-04-24T02:27:41;99308.00;;;16.30
22828;BMP180;11580;52.562;13.418;2023-04-24T02:30:09;99308.00;;;16.30
22828;BMP180;11580;52.562;13.418;2023-04-24T02:32:38;99315.00;;;16.30
22828;BMP180;11580;52.562;13.418;2023-04-24T02:35:06;99316.00;;;16.30
22828;BMP180;11580;52.562;13.418;2023-04-24T02:37:33;99326.00;;;16.30
22828;BMP180;11580;52.562;13.418;2023-04-24T02:40:00;99324.00;;;16.30
22828;BMP180;11580;52.562;13.418;2023-04-24T02:42:28;99322.00;;;16.30
22828;BMP180;11580;52.562;13.418;2023-04-24T02:44:57;99311.00;;;16.30
22828;BMP180;11580;52.562;13.418;2023-04-24T02:47:24;99310.00;;;16.20
22828;BMP180;11580;52.562;13.418;2023-04-24T02:49:52;99306.00;;;16.20
22828;BMP180;11580;52.562;13.418;2023-04-24T02:52:20;99305.00;;;16.20
22828;BMP180;11580;52.562;13.418;2023-04-24T02:54:47;99307.00;;;16.20
22828;BMP180;11580;52.562;13.418;2023-04-24T02:57:14;99304.00;;;16.20
22828;BMP180;11580;52.562;13.418;2023-04-24T02:59:42;99311.00;;;16.30
22828;BMP180;11580;52.562;13.418;2023-04-24T03:02:09;99290.00;;;16.30
22828;BMP180;11580;52.562;13.418;2023-04-24T03:04:36;99294.00;;;16.30
22828;BMP180;11580;52.562;13.418;2023-04-24T03:07:05;99304.00;;;16.30
22828;BMP180;11580;52.562;13.418;2023-04-24T03:09:32;99293.00;;;16.40
22828;BMP180;11580;52.562;13.418;2023-04-24T03:11:59;99311.00;;;16.40
22828;BMP180;11580;52.562;13.418;2023-04-24T03:14:26;99310.00;;;16.40
22828;BMP180;11580;52.562;13.418;2023-04-24T03:16:57;99310.00;;;16.50
22828;BMP180;11580;52.562;13.418;2023-04-24T03:19:24;99315.00;;;16.50
22828;BMP180;11580;52.562;13.418;2023-04-24T03:22:02;99321.00;;;16.50
22828;BMP180;11580;52.562;13.418;2023-04-24T03:24:31;99325.00;;;16.50
22828;BMP180;11580;52.562;13.418;2023-04-24T03:26:59;99321.00;;;16.60
22828;BMP180;11580;52.562;13.418;2023-04-24T03:29:45;99320.00;;;16.60
22828;BMP180;11580;52.562;13.418;2023-04-24T03:32:13;99323.00;;;16.60
22828;BMP180;11580;52.562;13.418;2023-04-24T03:34:40;99322.00;;;16.70
22828;BMP180;11580;52.562;13.418;2023-04-24T03:37:11;99314.00;;;16.70
22828;BMP180;11580;52.562;13.418;2023-04-24T03:39:45;99310.00;;;16.80
22828;BMP180;11580;52.562;13.418;2023-04-24T03:42:13;99278.00;;;16.80
22828;BMP180;11580;52.562;13.418;2023-04-24T03:44:50;99314.00;;;16.80
22828;BMP180;11580;52.562;13.418;2023-04-24T03:47:18;99320.00;;;16.90
22828;BMP180;11580;52.562;13.418;2023-04-24T03:49:47;99330.00;;;16.90
22828;BMP180;11580;52.562;13.418;2023-04-24T03:52:14;99336.00;;;16.90
22828;BMP180;11580;52.562;13.418;2023-04-24T03:54:43;99335.00;;;17.00
22828;BMP180;11580;52.562;13.418;2023-04-24T03:57:11;99325.00;;;17.00
22828;BMP180;11580;52.562;13.418;2023-04-24T03:59:46;99321.00;;;17.00
22828;BMP180;11580;52.562;13.418;2023-04-24T04:02:17;99324.00;;;17.00
22828;BMP180;11580;52.562;13.418;2023-04-24T04:04:45;99325.00;;;17.10
22828;BMP180;11580;52.562;13.418;2023-04-24T04:07:12;99323.00;;;17.10
22828;BMP180;11580;52.562;13.418;2023-04-24T04:09:39;99314.00;;;17.10
22828;BMP180;11580;52.562;13.418;2023-04-24T04:12:08;99313.00;;;17.10
22828;BMP180;11580;52.562;13.418;2023-04-24T04:14:36;99314.00;;;17.10
22828;BMP180;11580;52.562;13.418;2023-04-24T04:17:04;99311.00;;;17.20
22828;BMP180;11580;52.562;13.418;2023-04-24T04:19:31;99299.00;;;17.20
22828;BMP180;11580;52.562;13.418;2023-04-24T04:21:58;99311.00;;;17.20
22828;BMP180;11580;52.562;13.418;2023-04-24T04:24:34;99311.00;;;17.20
22828;BMP180;11580;52.562;13.418;2023-04-24T04:27:04;99311.00;;;17.20
22828;BMP180;11580;52.562;13.418;2023-04-24T04:29:39;99309.00;;;17.20
22828;BMP180;11580;52.562;13.418;2023-04-24T04:32:09;99307.00;;;17.20
22828;BMP180;11580;52.562;13.418;2023-04-24T04:34:37;99308.00;;;17.30
22828;BMP180;11580;52.562;13.418;2023-04-24T04:37:07;99310.00;;;17.30
22828;BMP180;11580;52.562;13.418;2023-04-24T04:39:50;99310.00;;;17.30
22828;BMP180;11580;52.562;13.418;2023-04-24T04:42:22;99319.00;;;17.30
22828;BMP180;11580;52.562;13.418;2023-04-24T04:44:51;99316.00;;;17.30
22828;BMP180;11580;52.562;13.418;2023-04-24T04:47:24;99319.00;;;17.30
22828;BMP180;11580;52.562;13.418;2023-04-24T04:49:54;99331.00;;;17.30
22828;BMP180;11580;52.562;13.418;2023-04-24T04:52:25;99327.00;;;17.30
22828;BMP180;11580;52.562;13.418;2023-04-24T04:55:05;99338.00;;;17.30
22828;BMP180;11580;52.562;13.418;2023-04-24T04:57:56;99332.00;;;17.30
22828;BMP180;11580;52.562;13.418;2023-04-24T05:00:25;99339.00;;;17.40
22828;BMP180;11580;52.562;13.418;2023-04-24T05:02:53;99337.00;;;17.40
22828;BMP180;11580;52.562;13.418;2023-04-24T05:05:20;99341.00;;;17.40
22828;BMP180;11580;52.562;13.418;2023-04-24T05:07:48;99341.00;;;17.50
22828;BMP180;11580;52.562;13.418;2023-04-24T05:10:16;99336.00;;;17.50
22828;BMP180;11580;52.562;13.418;2023-04-24T05:12:43;99332.00;;;17.50
22828;BMP180;11580;52.562;13.418;2023-04-24T05:15:11;99340.00;;;17.60
22828;BMP180;11580;52.562;13.418;2023-04-24T05:17:40;99343.00;;;17.50
22828;BMP180;11580;52.562;13.418;2023-04-24T05:20:08;99339.00;;;17.60
22828;BMP180;11580;52.562;13.418;2023-04-24T05:22:36;99344.00;;;17.70
22828;BMP180;11580;52.562;13.418;2023-04-24T05:25:04;99336.00;;;17.80
22828;BMP180;11580;52.562;13.418;2023-04-24T05:27:54;99343.00;;;17.80
22828;BMP180;11580;52.562;13.418;2023-04-24T05:30:22;99345.00;;;17.90
22828;BMP180;11580;52.562;13.418;2023-04-24T05:32:51;99351.00;;;17.90
22828;BMP180;11580;52.562;13.418;2023-04-24T05:35:18;99351.00;;;18.00
22828;BMP180;11580;52.562;13.418;2023-04-24T05:37:46;99348.00;;;18.10
22828;BMP180;11580;52.562;13.418;2023-04-24T05:40:14;99344.00;;;18.10
22828;BMP180;11580;52.562;13.418;2023-04-24T05:42:42;99350.00;;;18.20
22828;BMP180;11580;52.562;13.418;2023-04-24T05:45:09;99355.00;;;18.30
22828;BMP180;11580;52.562;13.418;2023-04-24T05:47:42;99353.00;;;18.30
22828;BMP180;11580;52.562;13.418;2023-04-24T05:50:12;99355.00;;;18.40
22828;BMP180;11580;52.562;13.418;2023-04-24T05:52:39;99352.00;;;18.40
22828;BMP180;11580;52.562;13.418;2023-04-24T05:55:19;99361.00;;;18.50
22828;BMP180;11580;52.562;13.418;2023-04-24T05:57:46;99346.00;;;18.50
22828;BMP180;11580;52.562;13.418;2023-04-24T06:00:14;99359.00;;;18.50
22828;BMP180;11580;52.562;13.418;2023-04-24T06:02:50;99359.00;;;18.50
22828;BMP180;11580;52.562;13.418;2023-04-24T06:05:19;99370.00;;;18.50
22828;BMP180;11580;52.562;13.418;2023-04-24T06:07:48;99354.00;;;18.50
22828;BMP180;11580;52.562;13.418;2023-04-24T06:10:15;99374.00;;;18.50
22828;BMP180;11580;52.562;13.418;2023-04-24T06:12:44;99375.00;;;18.50
22828;BMP180;11580;52.562;13.418;2023-04-24T06:15:16;99365.00;;;18.60
22828;BMP180;11580;52.562;13.418;2023-04-24T06:18:09;99373.00;;;18.60
22828;BMP180;11580;52.562;13.418;2023-04-24T06:20:39;99375.00;;;18.70
22828;BMP180;11580;52.562;13.418;2023-04-24T06:23:08;99381.00;;;18.70
22828;BMP180;11580;52.562;13.418;2023-04-24T06:25:36;99385.00;;;18.70
22828;BMP180;11580;52.562;13.418;2023-04-24T06:28:03;99382.00;;;18.80
22828;BMP180;11580;52.562;13.418;2023-04-24T06:30:31;99381.00;;;18.80
22828;BMP180;11580;52.562;13.418;2023-04-24T06:32:58;99372.00;;;18.80
22828;BMP180;11580;52.562;13.418;2023-04-24T06:35:25;99379.00;;;18.90
22828;BMP180;11580;52.562;13.418;2023-04-24T06:37:54;99379.00;;;18.90
22828;BMP180;11580;52.562;13.418;2023-04-24T06:40:22;99386.00;;;19.00
22828;BMP180;11580;52.562;13.418;2023-04-24T06:42:49;99381.00;;;19.10
22828;BMP180;11580;52.562;13.418;2023-04-24T06:45:16;99387.00;;;19.20
22828;BMP180;11580;52.562;13.418;2023-04-24T06:47:43;99378.00;;;19.30
22828;BMP180;11580;52.562;13.418;2023-04-24T06:50:11;99396.00;;;19.30
22828;BMP180;11580;52.562;13.418;2023-04-24T06:52:38;99390.00;;;19.50
22828;BMP180;11580;52.562;13.418;2023-04-24T06:55:08;99387.00;;;19.60
22828;BMP180;11580;52.562;13.418;2023-04-24T06:57:37;99385.00;;;19.70
22828;BMP180;11580;52.562;13.418;2023-04-24T07:00:05;99380.00;;;19.80
22828;BMP180;11580;52.562;13.418;2023-04-24T07:02:35;99387.00;;;20.00
22828;BMP180;11580;52.562;13.418;2023-04-24T07:05:04;99384.00;;;20.10
22828;BMP180;11580;52.562;13.418;2023-04-24T07:07:31;99390.00;;;20.20
22828;BMP180;11580;52.562;13.418;2023-04-24T07:09:58;99386.00;;;20.40
22828;BMP180;11580;52.562;13.418;2023-04-24T07:12:26;99376.00;;;20.50
22828;BMP180;11580;52.562;13.418;2023-04-24T07:14:54;99383.00;;;20.60
22828;BMP180;11580;52.562;13.418;2023-04-24T07:17:21;99388.00;;;20.70
22828;BMP180;11580;52.562;13.418;2023-04-24T07:19:48;99387.00;;;20.70
22828;BMP180;11580;52.562;13.418;2023-04-24T07:22:15;99377.00;;;20.80
22828;BMP180;11580;52.562;13.418;2023-04-24T07:24:43;99378.00;;;20.80
22828;BMP180;11580;52.562;13.418;2023-04-24T07:27:10;99392.00;;;20.80
22828;BMP180;11580;52.562;13.418;2023-04-24T07:29:42;99390.00;;;20.90
22828;BMP180;11580;52.562;13.418;2023-04-24T07:32:09;99381.00;;;20.90
22828;BMP180;11580;52.562;13.418;2023-04-24T07:34:36;99387.00;;;20.80
22828;BMP180;11580;52.562;13.418;2023-04-24T07:37:04;99387.00;;;20.80
22828;BMP180;11580;52.562;13.418;2023-04-24T07:39:31;99386.00;;;20.90
22828;BMP180;11580;52.562;13.418;2023-04-24T07:41:58;99389.00;;;20.90
22828;BMP180;11580;52.562;13.418;2023-04-24T07:44:27;99397.00;;;21.00
22828;BMP180;11580;52.562;13.418;2023-04-24T07:46:56;99393.00;;;21.00
22828;BMP180;11580;52.562;13.418;2023-04-24T07:49:23;99391.00;;;21.10
22828;BMP180;11580;52.562;13.418;2023-04-24T07:51:50;99382.00;;;21.10
22828;BMP180;11580;52.562;13.418;2023-04-24T07:54:19;99391.00;;;21.10
22828;BMP180;11580;52.562;13.418;2023-04-24T07:56:47;99392.00;;;21.10
22828;BMP180;11580;52.562;13.418;2023-04-24T07:59:14;99396.00;;;21.10
22828;BMP180;11580;52.562;13.418;2023-04-24T08:01:41;99395.00;;;21.10
22828;BMP180;11580;52.562;13.418;2023-04-24T08:04:10;99394.00;;;21.10
22828;BMP180;11580;52.562;13.418;2023-04-24T08:06:37;99386.00;;;21.10
22828;BMP180;11580;52.562;13.418;2023-04-24T08:09:04;99392.00;;;21.20
22828;BMP180;11580;52.562;13.418;2023-04-24T08:11:32;99385.00;;;21.20
22828;BMP180;11580;52.562;13.418;2023-04-24T08:13:59;99386.00;;;21.30
22828;BMP180;11580;52.562;13.418;2023-04-24T08:16:27;99392.00;;;21.40
22828;BMP180;11580;52.562;13.418;2023-04-24T08:18:54;99378.00;;;21.40
22828;BMP180;11580;52.562;13.418;2023-04-24T08:21:23;99362.00;;;21.50
22828;BMP180;11580;52.562;13.418;2023-04-24T08:23:52;99395.00;;;21.60
22828;BMP180;11580;52.562;13.418;2023-04-24T08:26:19;99405.00;;;21.70
22828;BMP180;11580;52.562;13.418;2023-04-24T08:28:46;99395.00;;;21.80
22828;BMP180;11580;52.562;13.418;2023-04-24T08:31:13;99391.00;;;21.90
22828;BMP180;11580;52.562;13.418;2023-04-24T08:33:40;99390.00;;;22.10
22828;BMP180;11580;52.562;13.418;2023-04-24T08:36:10;99389.00;;;22.20
22828;BMP180;11580;52.562;13.418;2023-04-24T08:38:39;99397.00;;;22.40
22828;BMP180;11580;52.562;13.418;2023-04-24T08:41:07;99396.00;;;22.50
22828;BMP180;11580;52.562;13.418;2023-04-24T08:43:35;99395.00;;;22.70
22828;BMP180;11580;52.562;13.418;2023-04-24T08:46:04;99397.00;;;22.90
22828;BMP180;11580;52.562;13.418;2023-04-24T08:48:32;99397.00;;;23.10
22828;BMP180;11580;52.562;13.418;2023-04-24T08:50:59;99395.00;;;23.30
22828;BMP180;11580;52.562;13.418;2023-04-24T08:53:27;99400.00;;;23.50
22828;BMP180;11580;52.562;13.418;2023-04-24T08:55:56;99401.00;;;23.70
22828;BMP180;11580;52.562;13.418;2023-04-24T08:58:25;99401.00;;;23.80
22828;BMP180;11580;52.562;13.418;2023-04-24T09:00:55;99409.00;;;24.00
22828;BMP180;11580;52.562;13.418;2023-04-24T09:03:22;99406.00;;;24.20
22828;BMP180;11580;52.562;13.418;2023-04-24T09:05:50;99411.00;;;24.30
22828;BMP180;11580;52.562;13.418;2023-04-24T09:08:24;99413.00;;;24.50
22828;BMP180;11580;52.562;13.418;2023-04-24T09:10:52;99407.00;;;24.50
22828;BMP180;11580;52.562;13.418;2023-04-24T09:13:21;99408.00;;;24.60
22828;BMP180;11580;52.562;13.418;2023-04-24T09:15:48;99415.00;;;24.70
22828;BMP180;11580;52.562;13.418;2023-04-24T09:18:17;99416.00;;;24.70
22828;BMP180;11580;52.562;13.418;2023-04-24T09:21:02;99415.00;;;24.90
22828;BMP180;11580;52.562;13.418;2023-04-24T09:23:30;99415.00;;;24.90
22828;BMP180;11580;52.562;13.418;2023-04-24T09:26:00;99419.00;;;25.00
22828;BMP180;11580;52.562;13.418;2023-04-24T09:28:35;99416.00;;;25.20
22828;BMP180;11580;52.562;13.418;2023-04-24T09:31:05;99422.00;;;25.20
22828;BMP180;11580;52.562;13.418;2023-04-24T09:33:33;99415.00;;;25.20
22828;BMP180;11580;52.562;13.418;2023-04-24T09:36:00;99419.00;;;25.20
22828;BMP180;11580;52.562;13.418;2023-04-24T09:38:33;99424.00;;;25.20
22828;BMP180;11580;52.562;13.418;2023-04-24T09:41:01;99413.00;;;25.20
22828;BMP180;11580;52.562;13.418;2023-04-24T09:43:31;99424.00;;;25.20
22828;BMP180;11580;52.562;13.418;2023-04-24T09:46:04;99424.00;;;25.10
22828;BMP180;11580;52.562;13.418;2023-04-24T09:48:32;99428.00;;;25.10
22828;BMP180;11580;52.562;13.418;2023-04-24T09:51:02;99425.00;;;25.10
22828;BMP180;11580;52.562;13.418;2023-04-24T09:53:30;99426.00;;;25.00
22828;BMP180;11580;52.562;13.418;2023-04-24T09:56:06;99421.00;;;25.00
22828;BMP180;11580;52.562;13.418;2023-04-24T09:58:36;99429.00;;;25.00
22828;BMP180;11580;52.562;13.418;2023-04-24T10:01:04;99423.00;;;25.00
22828;BMP180;11580;52.562;13.418;2023-04-24T10:03:32;99427.00;;;25.00
22828;BMP180;11580;52.562;13.418;2023-04-24T10:06:00;99423.00;;;25.10
22828;BMP180;11580;52.562;13.418;2023-04-24T10:08:34;99413.00;;;25.20
22828;BMP180;11580;52.562;13.418;2023-04-24T10:11:01;99414.00;;;25.40
22828;BMP180;11580;52.562;13.418;2023-04-24T10:13:29;99413.00;;;25.50
22828;BMP180;11580;52.562;13.418;2023-04-24T10:16:00;99412.00;;;25.60
22828;BMP180;11580;52.562;13.418;2023-04-24T10:18:28;99407.00;;;25.70
22828;BMP180;11580;52.562;13.418;2023-04-24T10:20:57;99416.00;;;25.80
22828;BMP180;11580;52.562;13.418;2023-04-24T10:23:25;99411.00;;;25.90
22828;BMP180;11580;52.562;13.418;2023-04-24T10:25:53;99413.00;;;26.00
22828;BMP180;11580;52.562;13.418;2023-04-24T10:28:22;99414.00;;;26.10
22828;BMP180;11580;52.562;13.418;2023-04-24T10:30:54;99417.00;;;26.20
22828;BMP180;11580;52.562;13.418;2023-04-24T10:33:23;99410.00;;;26.30
22828;BMP180;11580;52.562;13.418;2023-04-24T10:35:51;99418.00;;;26.40
22828;BMP180;11580;52.562;13.418;2023-04-24T10:38:25;99423.00;;;26.40
22828;BMP180;11580;52.562;13.418;2023-04-24T10:40:58;99420.00;;;26.40
22828;BMP180;11580;52.562;13.418;2023-04-24T10:43:34;99426.00;;;26.40
22828;BMP180;11580;52.562;13.418;2023-04-24T10:46:05;99415.00;;;26.30
22828;BMP180;11580;52.562;13.418;2023-04-24T10:48:35;99416.00;;;26.20
22828;BMP180;11580;52.562;13.418;2023-04-24T10:51:12;99411.00;;;26.10
22828;BMP180;11580;52.562;13.418;2023-04-24T10:53:40;99424.00;;;25.90
22828;BMP180;11580;52.562;13.418;2023-04-24T10:56:08;99426.00;;;25.80
22828;BMP180;11580;52.562;13.418;2023-04-24T10:58:39;99410.00;;;25.70
22828;BMP180;11580;52.562;13.418;2023-04-24T11:01:07;99419.00;;;25.60
22828;BMP180;11580;52.562;13.418;2023-04-24T11:03:35;99414.00;;;25.60
22828;BMP180;11580;52.562;13.418;2023-04-24T11:06:05;99410.00;;;25.50
22828;BMP180;11580;52.562;13.418;2023-04-24T11:08:38;99412.00;;;25.50
22828;BMP180;11580;52.562;13.418;2023-04-24T11:11:11;99411.00;;;25.50
22828;BMP180;11580;52.562;13.418;2023-04-24T11:14:05;99418.00;;;25.50
22828;BMP180;11580;52.562;13.418;2023-04-24T11:16:37;99403.00;;;25.60
22828;BMP180;11580;52.562;13.418;2023-04-24T11:19:10;99399.00;;;25.70
22828;BMP180;11580;52.562;13.418;2023-04-24T11:21:44;99408.00;;;25.80
22828;BMP180;11580;52.562;13.418;2023-04-24T11:24:29;99408.00;;;26.00
22828;BMP180;11580;52.562;13.418;2023-04-24T11:27:00;99409.00;;;26.10
22828;BMP180;11580;52.562;13.418;2023-04-24T11:29:46;99412.00;;;26.20
22828;BMP180;11580;52.562;13.418;2023-04-24T11:32:26;99403.00;;;26.30
22828;BMP180;11580;52.562;13.418;2023-04-24T11:34:57;99410.00;;;26.30
22828;BMP180;11580;52.562;13.418;2023-04-24T11:37:28;99408.00;;;26.30
22828;BMP180;11580;52.562;13.418;2023-04-24T11:39:57;99406.00;;;26.30
22828;BMP180;11580;52.562;13.418;2023-04-24T11:42:25;99419.00;;;26.20
22828;BMP180;11580;52.562;13.418;2023-04-24T11:44:54;99415.00;;;26.10
22828;BMP180;11580;52.562;13.418;2023-04-24T11:47:28;99419.00;;;25.90
22828;BMP180;11580;52.562;13.418;2023-04-24T11:49:58;99432.00;;;25.60
22828;BMP180;11580;52.562;13.418;2023-04-24T11:52:26;99437.00;;;25.40
22828;BMP180;11580;52.562;13.418;2023-04-24T11:54:53;99432.00;;;25.10
22828;BMP180;11580;52.562;13.418;2023-04-24T11:57:21;99420.00;;;24.90
22828;BMP180;11580;52.562;13.418;2023-04-24T11:59:49;99430.00;;;24.70
22828;BMP180;11580;52.562;13.418;2023-04-24T12:02:23;99426.00;;;24.60
22828;BMP180;11580;52.562;13.418;2023-04-24T12:04:52;99421.00;;;24.40
22828;BMP180;11580;52.562;13.418;2023-04-24T12:07:22;99418.00;;;24.40
22828;BMP180;11580;52.562;13.418;2023-04-24T12:09:56;99421.00;;;24.30
22828;BMP180;11580;52.562;13.418;2023-04-24T12:12:26;99410.00;;;24.30
22828;BMP180;11580;52.562;13.418;2023-04-24T12:14:55;99402.00;;;24.20
22828;BMP180;11580;52.562;13.418;2023-04-24T12:17:29;99404.00;;;24.20
22828;BMP180;11580;52.562;13.418;2023-04-24T12:20:02;99394.00;;;24.10
22828;BMP180;11580;52.562;13.418;2023-04-24T12:22:44;99395.00;;;24.00
22828;BMP180;11580;52.562;13.418;2023-04-24T12:25:13;99394.00;;;23.90
22828;BMP180;11580;52.562;13.418;2023-04-24T12:27:40;99391.00;;;23.90
22828;BMP180;11580;52.562;13.418;2023-04-24T12:30:13;99380.00;;;23.90
22828;BMP180;11580;52.562;13.418;2023-04-24T12:32:45;99382.00;;;23.80
22828;BMP180;11580;52.562;13.418;2023-04-24T12:35:13;99384.00;;;23.80
22828;BMP180;11580;52.562;13.418;2023-04-24T12:37:43;99374.00;;;23.80
22828;BMP180;11580;52.562;13.418;2023-04-24T12:40:13;99378.00;;;23.80
22828;BMP180;11580;52.562;13.418;2023-04-24T12:42:44;99378.00;;;23.80
22828;BMP180;11580;52.562;13.418;2023-04-24T12:45:12;99364.00;;;23.80
22828;BMP180;11580;52.562;13.418;2023-04-24T12:47:42;99375.00;;;24.00
22828;BMP180;11580;52.562;13.418;2023-04-24T12:50:11;99368.00;;;24.00
22828;BMP180;11580;52.562;13.418;2023-04-24T12:52:39;99367.00;;;24.10
22828;BMP180;11580;52.562;13.418;2023-04-24T12:55:09;99358.00;;;24.20
22828;BMP180;11580;52.562;13.418;2023-04-24T12:57:39;99360.00;;;24.30
22828;BMP180;11580;52.562;13.418;2023-04-24T13:00:08;99385.00;;;24.40
22828;BMP180;11580;52.562;13.418;2023-04-24T13:02:36;99384.00;;;24.40
22828;BMP180;11580;52.562;13.418;2023-04-24T13:05:03;99378.00;;;24.40
22828;BMP180;11580;52.562;13.418;2023-04-24T13:07:31;99381.00;;;24.40
22828;BMP180;11580;52.562;13.418;2023-04-24T13:09:58;99368.00;;;24.40
22828;BMP180;11580;52.562;13.418;2023-04-24T13:12:27;99380.00;;;24.40
22828;BMP180;11580;52.562;13.418;2023-04-24T13:14:54;99376.00;;;24.50
22828;BMP180;11580;52.562;13.418;2023-04-24T13:17:22;99376.00;;;24.50
22828;BMP180;11580;52.562;13.418;2023-04-24T13:19:50;99382.00;;;24.60
22828;BMP180;11580;52.562;13.418;2023-04-24T13:22:18;99372.00;;;24.50
22828;BMP180;11580;52.562;13.418;2023-04-24T13:24:45;99373.00;;;24.50
22828;BMP180;11580;52.562;13.418;2023-04-24T13:27:15;99370.00;;;24.50
22828;BMP180;11580;52.562;13.418;2023-04-24T13:29:45;99364.00;;;24.50
22828;BMP180;11580;52.562;13.418;2023-04-24T13:32:12;99361.00;;;24.60
22828;BMP180;11580;52.562;13.418;2023-04-24T13:34:40;99366.00;;;24.60
22828;BMP180;11580;52.562;13.418;2023-04-24T13:37:07;99372.00;;;24.60
22828;BMP180;11580;52.562;13.418;2023-04-24T13:39:34;99375.00;;;24.70
22828;BMP180;11580;52.562;13.418;2023-04-24T13:42:02;99377.00;;;24.70
22828;BMP180;11580;52.562;13.418;2023-04-24T13:44:29;99380.00;;;24.70
22828;BMP180;11580;52.562;13.418;2023-04-24T13:46:59;99355.00;;;24.60
22828;BMP180;11580;52.562;13.418;2023-04-24T13:49:27;99368.00;;;24.50
22828;BMP180;11580;52.562;13.418;2023-04-24T13:51:55;99363.00;;;24.40
22828;BMP180;11580;52.562;13.418;2023-04-24T13:54:23;99359.00;;;24.40
22828;BMP180;11580;52.562;13.418;2023-04-24T13:56:51;99365.00;;;24.30
22828;BMP180;11580;52.562;13.418;2023-04-24T13:59:19;99362.00;;;24.30
22828;BMP180;11580;52.562;13.418;2023-04-24T14:01:47;99358.00;;;24.30
22828;BMP180;11580;52.562;13.418;2023-04-24T14:04:15;99366.00;;;24.30
22828;BMP180;11580;52.562;13.418;2023-04-24T14:06:43;99370.00;;;24.30
22828;BMP180;11580;52.562;13.418;2023-04-24T14:09:10;99367.00;;;24.30